Orbital elements of COSMOS 2251 DEB
| Launched | 15 June 1993 |
| Flight ended | – |
| Launch site | Plesetsk Missile and Space Complex, Russia |
| Owner | Commonwealth of Independent States (former USSR) |
| NORAD ID | 37331 |
| Date fetched |
Epoch osculation |
Inc. [°] |
Ecc. | RA asc node [hr] |
Arg Peri. [°] |
Mean anom [°] |
Mean motion [rev/day] |
Abs. mag |
| Date fetched |
Epoch osculation |
Inc. [°] |
Ecc. | RA asc node [hr] |
Arg Peri. [°] |
Mean anom [°] |
Mean motion [rev/day] |
Abs. mag |
| 2026 May 07 17:58 | 2026 May 04 09:05:31 | 74.0729 | 0.00554 | 11.1270 | 147.7811 | 212.6744 | 14.35528 | – |
| 2026 May 06 17:57 | 2026 May 04 09:05:31 | 74.0729 | 0.00554 | 11.1270 | 147.7811 | 212.6744 | 14.35528 | – |
| 2026 May 05 17:57 | 2026 May 04 09:05:31 | 74.0729 | 0.00554 | 11.1270 | 147.7811 | 212.6744 | 14.35528 | – |
| 2026 May 04 17:57 | 2026 Apr 29 13:41:11 | 74.0732 | 0.00556 | 11.7136 | 157.7226 | 212.6744 | 14.35528 | – |
| 2026 May 03 17:57 | 2026 Apr 29 13:41:11 | 74.0732 | 0.00556 | 11.7136 | 157.7226 | 212.6744 | 14.35528 | – |
| 2026 May 02 17:57 | 2026 Apr 29 13:41:11 | 74.0732 | 0.00556 | 11.7136 | 157.7226 | 212.6744 | 14.35528 | – |
| 2026 May 01 17:56 | 2026 Apr 29 13:41:11 | 74.0732 | 0.00556 | 11.7136 | 157.7226 | 212.6744 | 14.35528 | – |
| 2026 Apr 30 17:56 | 2026 Apr 29 13:41:11 | 74.0732 | 0.00556 | 11.7136 | 157.7226 | 212.6744 | 14.35528 | – |
| 2026 Apr 29 17:57 | 2026 Apr 22 22:47:35 | 74.0740 | 0.00559 | 12.5213 | 171.3582 | 212.6744 | 14.35528 | – |
| 2026 Apr 28 17:56 | 2026 Apr 22 22:47:35 | 74.0740 | 0.00559 | 12.5213 | 171.3582 | 212.6744 | 14.35528 | – |
| 2026 Apr 27 17:58 | 2026 Apr 22 22:47:35 | 74.0740 | 0.00559 | 12.5213 | 171.3582 | 212.6744 | 14.35528 | – |
| 2026 Apr 26 17:58 | 2026 Apr 22 22:47:35 | 74.0740 | 0.00559 | 12.5213 | 171.3582 | 212.6744 | 14.35528 | – |
| 2026 Apr 25 17:58 | 2026 Apr 22 22:47:35 | 74.0740 | 0.00559 | 12.5213 | 171.3582 | 212.6744 | 14.35528 | – |
| 2026 Apr 24 17:59 | 2026 Apr 22 22:47:35 | 74.0740 | 0.00559 | 12.5213 | 171.3582 | 212.6744 | 14.35528 | – |
| 2026 Apr 23 17:57 | 2026 Apr 18 11:44:54 | 74.0744 | 0.00561 | 13.0655 | 180.5533 | 212.6744 | 14.35528 | – |
| 2026 Apr 22 17:57 | 2026 Apr 18 11:44:54 | 74.0744 | 0.00561 | 13.0655 | 180.5533 | 212.6744 | 14.35528 | – |
| 2026 Apr 21 17:57 | 2026 Apr 18 11:44:54 | 74.0744 | 0.00561 | 13.0655 | 180.5533 | 212.6744 | 14.35528 | – |
| 2026 Apr 20 17:57 | 2026 Apr 18 11:44:54 | 74.0744 | 0.00561 | 13.0655 | 180.5533 | 212.6744 | 14.35528 | – |
| 2026 Apr 19 17:58 | 2026 Apr 18 11:44:54 | 74.0744 | 0.00561 | 13.0655 | 180.5533 | 212.6744 | 14.35528 | – |
| 2026 Apr 18 17:56 | 2026 Apr 12 16:55:26 | 74.0741 | 0.00564 | 13.7710 | 192.4310 | 212.6744 | 14.35528 | – |
| 2026 Apr 16 17:57 | 2026 Apr 12 16:55:26 | 74.0741 | 0.00564 | 13.7710 | 192.4310 | 212.6744 | 14.35528 | – |
| 2026 Apr 14 17:57 | 2026 Apr 12 16:55:26 | 74.0741 | 0.00564 | 13.7710 | 192.4310 | 212.6744 | 14.35528 | – |
| 2026 Apr 13 17:57 | 2026 Apr 12 16:55:26 | 74.0741 | 0.00564 | 13.7710 | 192.4310 | 212.6744 | 14.35528 | – |
| 2026 Apr 12 17:57 | 2026 Apr 05 14:19:07 | 74.0735 | 0.00565 | 14.6383 | 206.9036 | 212.6744 | 14.35528 | – |
| 2026 Apr 11 17:57 | 2026 Apr 05 14:19:07 | 74.0735 | 0.00565 | 14.6383 | 206.9036 | 212.6744 | 14.35528 | – |
| 2026 Apr 10 17:58 | 2026 Apr 05 14:19:07 | 74.0735 | 0.00565 | 14.6383 | 206.9036 | 212.6744 | 14.35528 | – |